Time;durP1;ratioP1;P1;durP2;ratioP2;P2;SDS_P1;SDS_P2;PMS_P1;PMS_P2;Temp;Humidity;BMP_temperature;BMP_pressure;BME280_temperature;BME280_humidity;BME280_pressure;Samples;Min_cycle;Max_cycle;Signal;HPM_P1;HPM_P2
2022/02/12 00:02:14;;;;;;;1.38;0.80;;;23.60;25.30;23.90;95135.00;;;;10436350;28;47009;-75
2022/02/12 00:07:15;;;;;;;0.82;0.60;;;23.60;25.40;23.90;95117.00;;;;10420386;28;46883;-75
2022/02/12 00:12:15;;;;;;;1.13;0.50;;;23.60;25.40;23.90;95117.00;;;;10420173;28;46888;-75
2022/02/12 00:17:16;;;;;;;1.05;0.70;;;23.60;25.40;23.90;95107.00;;;;10436835;28;46139;-74
2022/02/12 00:22:17;;;;;;;1.00;0.60;;;23.50;25.30;23.80;95095.00;;;;10436542;28;45335;-75
2022/02/12 00:27:18;;;;;;;1.83;0.80;;;23.50;25.30;23.80;95103.00;;;;10419928;28;48287;-74
2022/02/12 00:32:19;;;;;;;0.80;0.57;;;23.50;25.40;23.70;95094.00;;;;10436797;28;45552;-75
2022/02/12 00:37:19;;;;;;;1.05;0.70;;;23.50;25.40;23.70;95095.00;;;;10436341;28;46827;-75
2022/02/12 00:42:22;;;;;;;1.75;0.60;;;23.40;25.60;23.70;95077.00;;;;10419402;28;46852;-75
2022/02/12 00:47:24;;;;;;;1.23;0.57;;;23.40;25.90;23.70;95082.00;;;;10435999;28;46408;-75
2022/02/12 00:52:25;;;;;;;1.00;0.60;;;23.40;25.40;23.70;95053.00;;;;10437185;28;45446;-74
2022/02/12 00:57:26;;;;;;;1.35;0.70;;;23.40;25.40;23.70;95077.00;;;;10435704;28;45312;-74
2022/02/12 01:02:27;;;;;;;1.08;0.60;;;23.40;25.40;23.70;95060.00;;;;10436670;28;45084;-75
2022/02/12 01:07:28;;;;;;;1.45;0.68;;;23.40;25.40;23.60;95056.00;;;;10435408;28;48042;-74
2022/02/12 01:12:28;;;;;;;0.80;0.50;;;23.30;25.40;23.60;95059.00;;;;10418682;28;47273;-75
2022/02/12 01:17:30;;;;;;;0.90;0.50;;;23.30;25.30;23.60;95046.00;;;;10423948;28;47319;-75
2022/02/12 01:22:30;;;;;;;1.08;0.45;;;23.30;25.30;23.60;95045.00;;;;10442038;28;45951;-75
2022/02/12 01:27:31;;;;;;;0.77;0.57;;;23.30;25.40;23.60;95039.00;;;;10443277;28;45239;-75
2022/02/12 01:32:32;;;;;;;1.15;0.60;;;23.30;25.40;23.60;95047.00;;;;10424873;28;47319;-75
2022/02/12 01:37:37;;;;;;;1.27;0.63;;;23.20;25.40;23.50;95027.00;;;;10424858;28;47277;-75
2022/02/12 01:42:38;;;;;;;1.80;0.60;;;23.20;25.40;23.50;95030.00;;;;10441628;28;45970;-75
2022/02/12 01:47:39;;;;;;;0.82;0.50;;;23.20;25.30;23.50;95028.00;;;;10441482;28;45128;-74
2022/02/12 01:52:42;;;;;;;1.17;0.60;;;23.20;25.30;23.50;95039.00;;;;10424397;28;47148;-74
2022/02/12 01:57:43;;;;;;;0.98;0.40;;;23.20;25.30;23.40;95030.00;;;;10440591;28;46399;-74
2022/02/12 02:02:44;;;;;;;0.98;0.40;;;23.10;25.30;23.40;95006.00;;;;10440052;28;45519;-74
2022/02/12 02:07:45;;;;;;;1.45;0.63;;;23.10;25.30;23.40;94996.00;;;;10423178;28;47092;-75
2022/02/12 02:12:46;;;;;;;0.75;0.47;;;23.10;25.30;23.40;94988.00;;;;10440823;28;45098;-74
2022/02/12 02:17:46;;;;;;;1.58;0.60;;;23.00;25.30;23.40;94973.00;;;;10440135;28;46393;-74
2022/02/12 02:22:56;;;;;;;0.80;0.40;;;23.00;25.30;23.40;94961.00;;;;10441741;28;45293;-74
2022/02/12 02:27:56;;;;;;;1.10;0.55;;;23.00;25.30;23.30;94964.00;;;;10422891;28;46987;-74
2022/02/12 02:32:57;;;;;;;0.90;0.50;;;23.00;25.30;23.30;94948.00;;;;10440270;28;45632;-75
2022/02/12 02:38:06;;;;;;;1.05;0.60;;;23.00;25.20;23.30;94934.00;;;;10422640;28;46701;-75
2022/02/12 02:43:07;;;;;;;0.95;0.60;;;23.00;25.20;23.30;94904.00;;;;10439943;28;45385;-74
2022/02/12 02:48:08;;;;;;;0.80;0.50;;;23.00;25.20;23.30;94909.00;;;;10440682;28;45386;-74
2022/02/12 02:58:47;;;;;;;0.82;0.60;;;22.90;25.20;23.30;94896.00;;;;10479495;22;45131;-74
2022/02/12 03:03:51;;;;;;;1.02;0.40;;;22.90;25.20;23.20;94891.00;;;;10421219;28;47255;-75
2022/02/12 03:08:53;;;;;;;0.75;0.38;;;22.90;25.30;23.20;94891.00;;;;10422009;28;46743;-72
2022/02/12 03:13:57;;;;;;;0.68;0.40;;;22.90;25.30;23.20;94882.00;;;;10421549;28;47035;-72
2022/02/12 03:18:58;;;;;;;1.60;0.60;;;22.90;25.20;23.20;94864.00;;;;10437991;28;45516;-72
2022/02/12 03:23:59;;;;;;;0.93;0.45;;;22.80;25.20;23.20;94874.00;;;;10437105;28;46938;-72
2022/02/12 03:29:00;;;;;;;1.00;0.50;;;22.80;25.20;23.10;94863.00;;;;10437474;28;45523;-72
2022/02/12 03:34:00;;;;;;;0.52;0.40;;;22.80;25.20;23.10;94872.00;;;;10437057;28;45303;-72
2022/02/12 03:39:03;;;;;;;0.50;0.50;;;22.80;25.20;23.10;94866.00;;;;10436549;28;45354;-71
2022/02/12 03:44:04;;;;;;;0.68;0.50;;;22.80;25.20;23.10;94858.00;;;;10437057;28;45424;-72
2022/02/12 03:49:05;;;;;;;0.60;0.40;;;22.80;25.30;23.10;94862.00;;;;10419929;28;46941;-72
2022/02/12 03:54:06;;;;;;;0.77;0.43;;;22.70;25.20;23.10;94858.00;;;;10419884;28;47166;-72
2022/02/12 03:59:06;;;;;;;0.98;0.45;;;22.80;25.30;23.00;94854.00;;;;10419252;28;48032;-71
2022/02/12 04:04:07;;;;;;;1.33;0.60;;;22.70;25.20;23.00;94857.00;;;;10436603;28;45384;-72
2022/02/12 04:09:07;;;;;;;1.20;0.60;;;22.70;25.20;23.10;94850.00;;;;10437280;28;46539;-72
2022/02/12 04:14:08;;;;;;;0.57;0.35;;;22.70;25.20;23.00;94844.00;;;;10436092;28;46020;-72
2022/02/12 04:19:09;;;;;;;0.63;0.40;;;22.70;25.20;23.00;94832.00;;;;10419812;28;47720;-72
2022/02/12 04:24:09;;;;;;;0.68;0.40;;;22.70;25.20;23.00;94829.00;;;;10435798;28;45544;-72
2022/02/12 04:29:10;;;;;;;1.77;0.50;;;22.70;25.20;23.00;94820.00;;;;10419195;28;47304;-72
2022/02/12 04:34:11;;;;;;;1.58;0.45;;;22.70;25.20;22.90;94806.00;;;;10435529;28;45231;-72
2022/02/12 04:39:12;;;;;;;0.60;0.40;;;22.70;25.20;22.90;94813.00;;;;10437117;28;45307;-71
2022/02/12 04:44:12;;;;;;;0.95;0.30;;;22.60;25.20;22.90;94808.00;;;;10418494;28;48101;-72
2022/02/12 04:49:13;;;;;;;0.82;0.30;;;22.60;25.20;22.90;94804.00;;;;10435811;28;45365;-72
2022/02/12 04:54:14;;;;;;;0.50;0.35;;;22.60;25.20;22.90;94796.00;;;;10425379;28;46856;-72
2022/02/12 04:59:14;;;;;;;0.77;0.45;;;22.60;25.20;22.90;94800.00;;;;10442202;28;46451;-72
2022/02/12 05:04:15;;;;;;;1.90;0.40;;;22.60;25.20;22.90;94798.00;;;;10441910;28;45247;-72
2022/02/12 05:09:16;;;;;;;1.52;0.40;;;22.60;25.20;22.90;94801.00;;;;10425171;28;47355;-72
2022/02/12 05:14:18;;;;;;;1.48;0.40;;;22.50;25.20;22.80;94790.00;;;;10441352;28;47616;-72
2022/02/12 05:19:18;;;;;;;0.73;0.40;;;22.50;25.20;22.80;94803.00;;;;10441619;28;45427;-72
2022/02/12 05:24:19;;;;;;;0.50;0.20;;;22.50;25.20;22.80;94786.00;;;;10441423;28;47294;-72
2022/02/12 05:29:20;;;;;;;2.47;0.57;;;22.50;25.20;22.70;94782.00;;;;10442230;28;45109;-71
2022/02/12 05:34:21;;;;;;;0.70;0.35;;;22.50;24.90;22.80;94779.00;;;;10441624;28;45174;-71
2022/02/12 05:39:21;;;;;;;1.65;0.40;;;22.50;25.20;22.90;94788.00;;;;10423961;28;47817;-72
2022/02/12 05:44:22;;;;;;;1.17;0.43;;;22.50;25.40;22.90;94781.00;;;;10441008;28;45526;-71
2022/02/12 05:49:23;;;;;;;2.15;0.40;;;22.50;25.60;22.90;94788.00;;;;10441461;28;46784;-71
2022/02/12 05:54:23;;;;;;;0.68;0.30;;;22.60;25.90;22.90;94775.00;;;;10442043;28;46046;-72
2022/02/12 05:59:24;;;;;;;1.33;0.30;;;22.60;26.00;22.90;94765.00;;;;10440752;28;46570;-72
2022/02/12 06:04:25;;;;;;;1.02;0.30;;;22.60;26.10;22.90;94781.00;;;;10423850;28;47281;-71
2022/02/12 06:09:25;;;;;;;1.00;0.28;;;22.60;26.40;22.90;94772.00;;;;10423996;28;48176;-71
2022/02/12 06:14:26;;;;;;;0.88;0.40;;;22.60;26.80;23.00;94776.00;;;;10440943;28;45427;-73
2022/02/12 06:19:27;;;;;;;0.28;0.20;;;22.70;26.90;23.00;94755.00;;;;10440675;28;45410;-72
2022/02/12 06:24:28;;;;;;;0.75;0.40;;;22.60;27.00;23.00;94760.00;;;;10423129;28;47385;-72
2022/02/12 06:29:28;;;;;;;1.05;0.30;;;22.60;27.20;22.80;94754.00;;;;10423116;28;47490;-72
2022/02/12 06:34:29;;;;;;;0.60;0.40;;;22.60;26.80;22.70;94737.00;;;;10440305;28;46321;-71
2022/02/12 06:39:30;;;;;;;2.67;0.40;;;22.50;26.50;22.80;94751.00;;;;10423074;28;47716;-73
2022/02/12 06:44:31;;;;;;;2.10;0.43;;;22.50;26.60;22.70;94763.00;;;;10421471;28;47082;-72
2022/02/12 06:49:32;;;;;;;1.27;0.40;;;22.40;26.20;22.70;94755.00;;;;10437920;28;45427;-74
2022/02/12 06:54:33;;;;;;;0.75;0.20;;;22.40;25.90;22.70;94754.00;;;;10440044;28;45263;-74
2022/02/12 06:59:36;;;;;;;0.80;0.30;;;22.40;25.90;22.70;94747.00;;;;10440059;28;46216;-75
2022/02/12 07:04:36;;;;;;;0.95;0.38;;;22.40;25.60;22.70;94754.00;;;;10438929;28;45337;-75
2022/02/12 07:09:37;;;;;;;1.10;0.40;;;22.40;25.40;22.70;94768.00;;;;10440056;28;45566;-75
2022/02/12 07:14:38;;;;;;;1.65;0.40;;;22.50;25.10;22.70;94780.00;;;;10438583;28;46387;-75
2022/02/12 07:19:38;;;;;;;1.60;0.38;;;22.50;24.00;22.70;94771.00;;;;10438114;28;45313;-75
2022/02/12 07:24:39;;;;;;;1.55;0.45;;;22.50;24.10;22.70;94770.00;;;;10422061;28;47755;-74
2022/02/12 07:29:40;;;;;;;1.80;0.60;;;22.50;24.00;22.70;94760.00;;;;10439575;28;45458;-74
2022/02/12 07:34:40;;;;;;;2.75;0.55;;;22.50;24.00;22.80;94774.00;;;;10438727;28;45220;-74
2022/02/12 07:39:41;;;;;;;1.33;0.40;;;22.60;23.30;23.00;94770.00;;;;10423172;28;48704;-74
2022/02/12 07:44:41;;;;;;;1.52;0.50;;;22.70;23.10;23.00;94769.00;;;;10439197;28;45229;-74
2022/02/12 07:49:42;;;;;;;1.42;0.40;;;22.90;23.40;23.20;94781.00;;;;10421450;28;47201;-75
2022/02/12 07:54:43;;;;;;;3.53;0.57;;;22.90;23.20;23.30;94767.00;;;;11289729;22;47207;-79
2022/02/12 07:59:43;;;;;;;1.98;0.50;;;23.00;23.30;23.30;94796.00;;;;10410257;28;48106;-76
2022/02/12 08:04:44;;;;;;;1.35;0.50;;;23.10;23.60;23.30;94803.00;;;;10418531;28;48115;-76
2022/02/12 08:09:46;;;;;;;3.42;0.45;;;23.20;23.40;23.30;94789.00;;;;10420400;28;47044;-77
2022/02/12 08:14:56;;;;;;;1.48;0.50;;;23.20;23.30;23.30;94802.00;;;;10449660;22;45352;-74
2022/02/12 08:19:58;;;;;;;1.73;0.57;;;23.20;23.50;23.30;94802.00;;;;10377754;28;47176;-75
2022/02/12 08:24:58;;;;;;;1.55;0.43;;;23.20;23.70;23.20;94813.00;;;;10380838;28;47708;-75
2022/02/12 08:29:59;;;;;;;1.40;0.68;;;23.10;23.50;22.30;94793.00;;;;10385284;28;48727;-75
2022/02/12 08:35:00;;;;;;;2.40;0.90;;;22.80;20.90;22.20;94791.00;;;;10384147;28;47236;-74
2022/02/12 08:40:01;;;;;;;3.33;0.60;;;22.50;21.40;22.70;94796.00;;;;10384500;28;47261;-74
2022/02/12 08:45:04;;;;;;;1.33;0.70;;;22.60;22.20;22.70;94788.00;;;;10402024;28;45692;-74
2022/02/12 08:50:08;;;;;;;1.58;0.70;;;22.70;21.60;23.30;94782.00;;;;10400708;28;47200;-75
2022/02/12 08:55:10;;;;;;;6.53;2.05;;;22.90;22.90;23.70;94801.00;;;;10400328;28;46288;-75
2022/02/12 09:00:13;;;;;;;45.22;8.88;;;23.20;23.10;23.90;94782.00;;;;10402243;28;45352;-75
2022/02/12 09:05:14;;;;;;;85.30;18.10;;;23.40;23.90;24.10;94788.00;;;;10383410;28;47313;-75
2022/02/12 09:10:18;;;;;;;108.38;26.05;;;23.60;24.80;24.20;94779.00;;;;10400019;28;45328;-75
2022/02/12 09:15:18;;;;;;;102.40;22.75;;;23.70;25.60;24.10;94795.00;;;;10399124;28;45464;-74
2022/02/12 09:20:19;;;;;;;73.07;18.65;;;23.80;25.50;23.90;94781.00;;;;10382489;28;47160;-74
2022/02/12 09:25:20;;;;;;;76.18;16.75;;;23.70;24.70;23.90;94779.00;;;;10381560;28;47223;-73
2022/02/12 09:30:21;;;;;;;42.88;10.50;;;23.70;24.80;23.50;94769.00;;;;10400718;28;45550;-75
2022/02/12 09:35:22;;;;;;;16.60;4.63;;;23.50;23.30;23.40;94777.00;;;;10398603;28;46101;-75
2022/02/12 09:40:25;;;;;;;26.30;6.35;;;23.40;22.30;23.40;94788.00;;;;10400320;28;45425;-75
2022/02/12 09:45:39;;;;;;;20.13;5.32;;;23.30;22.90;23.30;94799.00;;;;10400170;28;45220;-76
2022/02/12 09:50:41;;;;;;;16.42;5.28;;;23.20;23.60;23.20;94784.00;;;;10381998;28;48142;-74
2022/02/12 09:55:42;;;;;;;15.27;4.15;;;23.20;23.40;23.10;94771.00;;;;10380153;28;48070;-77
2022/02/12 10:00:43;;;;;;;12.07;3.90;;;23.10;23.10;23.30;94765.00;;;;10397739;28;47344;-75
2022/02/12 10:05:53;;;;;;;14.75;4.10;;;23.10;23.60;23.30;94783.00;;;;10397890;28;47464;-75
2022/02/12 10:10:53;;;;;;;14.18;4.40;;;23.10;24.00;23.30;94780.00;;;;10381799;28;47941;-75
2022/02/12 10:16:00;;;;;;;12.07;3.72;;;23.20;24.10;23.20;94778.00;;;;10395344;28;45516;-75
2022/02/12 10:21:01;;;;;;;11.30;3.65;;;23.10;24.20;23.30;94786.00;;;;10379261;28;47175;-75
2022/02/12 10:26:02;;;;;;;12.45;3.40;;;23.10;24.70;23.30;94791.00;;;;10380514;28;47161;-74
2022/02/12 10:31:04;;;;;;;11.38;3.15;;;23.10;24.20;23.20;94784.00;;;;10396572;28;47272;-75
2022/02/12 10:36:05;;;;;;;12.45;3.15;;;23.10;24.40;23.20;94782.00;;;;10379680;28;47015;-75
2022/02/12 10:41:12;;;;;;;10.23;3.30;;;23.10;24.90;23.30;94773.00;;;;10380515;28;48758;-75
2022/02/12 10:46:13;;;;;;;10.68;3.00;;;23.00;24.70;23.20;94768.00;;;;10394084;28;45419;-74
2022/02/12 10:51:21;;;;;;;7.85;2.72;;;23.00;24.60;23.20;94772.00;;;;10395242;28;47147;-75
2022/02/12 10:56:22;;;;;;;9.00;2.50;;;23.00;25.30;23.20;94746.00;;;;10391661;28;45598;-74
2022/02/12 11:01:23;;;;;;;7.68;2.80;;;23.00;26.10;23.20;94734.00;;;;10385146;28;47357;-73
2022/02/12 11:06:24;;;;;;;5.65;2.17;;;23.00;25.40;23.30;94718.00;;;;10381167;28;45437;-76
2022/02/12 11:11:25;;;;;;;6.70;2.58;;;23.00;25.40;23.20;94738.00;;;;10390575;28;47967;-73
2022/02/12 11:16:29;;;;;;;6.13;2.30;;;23.10;25.20;23.40;94742.00;;;;10392654;28;48359;-75
2022/02/12 11:21:33;;;;;;;6.30;2.00;;;23.10;25.30;23.50;94721.00;;;;10371324;28;48186;-76
2022/02/12 11:26:43;;;;;;;5.60;1.73;;;23.10;27.10;23.50;94740.00;;;;10361586;28;48350;-76
2022/02/12 11:32:14;;;;;;;6.15;1.85;;;23.20;26.40;23.50;94712.00;;;;10378937;28;47127;-74
2022/02/12 11:37:18;;;;;;;5.55;1.80;;;23.20;26.70;23.60;94710.00;;;;10378170;28;47322;-74
2022/02/12 11:42:39;;;;;;;3.38;1.27;;;23.30;26.80;23.60;94713.00;;;;10377742;28;47372;-75
2022/02/12 11:48:24;;;;;;;3.70;1.30;;;23.30;26.30;23.70;94716.00;;;;10394748;28;48504;-76
2022/02/12 11:53:46;;;;;;;3.15;1.40;;;23.40;26.30;23.70;94708.00;;;;10394559;28;47941;-75
2022/02/12 11:59:09;;;;;;;3.40;1.85;;;23.40;26.60;19.80;94678.00;;;;10395123;28;46267;-76
2022/02/12 12:04:11;;;;;;;2.58;1.13;;;21.70;18.90;22.30;94680.00;;;;10382441;28;47293;-75
2022/02/12 12:09:14;;;;;;;4.28;1.02;;;21.90;23.70;23.10;94667.00;;;;10398487;28;45215;-76
2022/02/12 12:14:23;;;;;;;1.92;0.98;;;22.40;24.40;23.40;94671.00;;;;10395538;28;47838;-75
2022/02/12 12:19:33;;;;;;;2.60;1.08;;;22.80;24.50;23.60;94645.00;;;;10395398;28;47162;-75
2022/02/12 12:24:40;;;;;;;1.10;0.75;;;23.00;24.60;23.80;94658.00;;;;10397150;28;45298;-75
2022/02/12 12:35:07;;;;;;;3.80;1.42;;;23.40;26.40;24.00;94651.00;;;;10395022;28;45711;-75
2022/02/12 12:40:09;;;;;;;3.55;1.30;;;23.40;26.50;23.90;94646.00;;;;10376431;28;45192;-74
2022/02/12 12:45:14;;;;;;;3.15;1.20;;;23.50;26.60;24.00;94644.00;;;;10375752;28;46986;-74
2022/02/12 12:50:14;;;;;;;3.60;1.00;;;23.50;26.40;24.00;94645.00;;;;10394317;28;45279;-74
2022/02/12 12:55:18;;;;;;;1.35;0.68;;;23.60;26.10;24.00;94636.00;;;;10393212;28;45310;-74
2022/02/12 13:00:23;;;;;;;1.88;0.90;;;23.60;25.80;24.00;94635.00;;;;10376287;28;47913;-74
2022/02/12 13:05:27;;;;;;;4.57;1.98;;;23.60;25.60;20.30;94635.00;;;;10376026;28;47305;-74
2022/02/12 13:10:30;;;;;;;3.15;2.08;;;22.30;17.40;18.80;94631.00;;;;10377378;28;47187;-74
2022/02/12 13:15:40;;;;;;;3.15;1.83;;;20.80;17.50;18.10;94627.00;;;;10382386;28;47573;-73
2022/02/12 13:20:41;;;;;;;3.35;1.80;;;19.70;18.30;18.80;94610.00;;;;10382504;28;47215;-74
2022/02/12 13:25:45;;;;;;;2.30;1.35;;;19.40;20.30;20.50;94604.00;;;;10365715;28;47017;-74
2022/02/12 13:30:48;;;;;;;1.52;0.80;;;20.20;20.50;21.70;94604.00;;;;10359652;28;45283;-74
2022/02/12 13:35:51;;;;;;;1.92;1.08;;;21.00;21.70;22.10;94617.00;;;;10359251;28;47219;-74
2022/02/12 13:40:54;;;;;;;1.33;0.70;;;21.50;21.40;22.40;94613.00;;;;10359315;28;46729;-74
2022/02/12 13:45:58;;;;;;;1.77;1.00;;;21.90;21.50;22.50;94605.00;;;;10341592;28;47718;-74
2022/02/12 13:51:08;;;;;;;3.72;1.10;;;22.10;21.60;22.70;94607.00;;;;10358506;28;46766;-74
2022/02/12 13:56:09;;;;;;;1.83;0.80;;;22.20;21.60;22.80;94597.00;;;;10361165;28;47288;-74
2022/02/12 14:01:09;;;;;;;1.23;0.70;;;22.40;21.70;22.80;94606.00;;;;10373279;28;48034;-74
2022/02/12 14:06:13;;;;;;;1.63;1.00;;;22.50;22.00;22.20;94599.00;;;;10414060;28;45427;-74
2022/02/12 14:11:14;;;;;;;1.58;0.90;;;22.20;21.90;22.40;94607.00;;;;10398241;28;45431;-74
2022/02/12 14:16:14;;;;;;;2.65;1.30;;;22.20;21.80;22.00;94598.00;;;;10404469;22;48507;-76
2022/02/12 14:21:15;;;;;;;2.38;0.90;;;22.00;21.80;22.50;94586.00;;;;10397025;28;45274;-74
2022/02/12 14:26:16;;;;;;;1.90;0.90;;;22.20;22.50;22.60;94603.00;;;;10394177;28;46315;-74
2022/02/12 14:31:17;;;;;;;2.95;0.98;;;22.30;22.60;22.50;94603.00;;;;10380444;28;46730;-75
2022/02/12 14:36:19;;;;;;;1.33;0.73;;;22.30;22.70;22.70;94595.00;;;;10395337;28;47242;-74
2022/02/12 14:41:19;;;;;;;3.03;0.98;;;22.40;23.40;22.70;94599.00;;;;10396760;28;47142;-74
2022/02/12 14:46:20;;;;;;;2.35;0.80;;;22.40;23.10;22.60;94594.00;;;;10396871;28;46566;-75
2022/02/12 14:51:21;;;;;;;1.65;0.80;;;22.40;23.70;22.70;94584.00;;;;10396484;28;47948;-74
2022/02/12 14:56:22;;;;;;;2.30;1.05;;;22.40;23.70;22.60;94576.00;;;;10396127;28;45232;-75
2022/02/12 15:01:22;;;;;;;3.33;0.95;;;22.40;23.40;22.70;94579.00;;;;10401052;28;45219;-74
2022/02/12 15:06:25;;;;;;;2.03;1.15;;;22.40;23.90;22.50;94568.00;;;;10421992;28;47220;-74
2022/02/12 15:11:26;;;;;;;2.92;1.17;;;22.40;23.40;22.40;94569.00;;;;10438304;28;45327;-73
2022/02/12 15:16:26;;;;;;;1.42;0.82;;;22.30;22.10;22.40;94552.00;;;;10437647;28;45539;-74
2022/02/12 15:21:27;;;;;;;1.42;0.90;;;22.30;22.00;22.50;94555.00;;;;10438100;28;45608;-74
2022/02/12 15:26:28;;;;;;;2.25;0.77;;;22.20;22.10;22.50;94555.00;;;;10420770;28;46998;-74
2022/02/12 15:31:29;;;;;;;2.00;0.93;;;22.20;22.80;22.40;94529.00;;;;10437735;28;46529;-74
2022/02/12 15:36:30;;;;;;;0.98;0.70;;;22.20;22.70;22.50;94546.00;;;;10436294;28;46582;-75
2022/02/12 15:41:30;;;;;;;1.27;0.70;;;22.20;23.20;22.60;94540.00;;;;10436455;28;46776;-74
2022/02/12 15:46:31;;;;;;;1.17;0.80;;;22.20;23.50;22.70;94548.00;;;;10392928;28;45312;-75
2022/02/12 15:51:32;;;;;;;2.22;0.90;;;22.30;23.50;22.70;94548.00;;;;10380164;28;47294;-75
2022/02/12 15:56:33;;;;;;;2.40;0.93;;;22.30;23.60;22.70;94542.00;;;;10379151;28;47378;-76
2022/02/12 16:01:38;;;;;;;1.98;0.80;;;22.40;23.80;22.70;94539.00;;;;10379203;28;46385;-75
2022/02/12 16:06:39;;;;;;;2.28;0.73;;;22.40;24.00;22.90;94529.00;;;;10396332;28;45375;-75
2022/02/12 16:11:40;;;;;;;3.78;0.90;;;22.40;24.40;22.90;94522.00;;;;10379223;28;46198;-76
2022/02/12 16:16:45;;;;;;;1.23;0.70;;;22.50;24.90;23.00;94517.00;;;;10426829;28;45649;-77
2022/02/12 16:21:46;;;;;;;1.90;0.70;;;22.50;25.20;23.10;94527.00;;;;10420162;28;47456;-78
2022/02/12 16:26:47;;;;;;;1.63;0.73;;;22.60;25.60;23.10;94515.00;;;;10443560;28;46391;-80
2022/02/12 16:31:47;;;;;;;2.85;0.70;;;22.60;25.50;23.00;94510.00;;;;10426677;28;47504;-77
2022/02/12 16:36:48;;;;;;;1.98;0.55;;;22.60;25.90;23.00;94512.00;;;;10383580;28;47067;-78
2022/02/12 16:41:54;;;;;;;4.03;0.40;;;22.70;26.70;23.00;94517.00;;;;10379234;28;46931;-78
2022/02/12 16:46:54;;;;;;;2.17;0.67;;;22.70;27.00;23.00;94520.00;;;;10384034;28;47196;-80
2022/02/12 16:51:56;;;;;;;2.47;0.70;;;22.70;26.90;23.00;94527.00;;;;10385576;28;48370;-80
2022/02/12 16:56:57;;;;;;;1.73;0.60;;;22.60;25.70;22.90;94523.00;;;;10407720;28;46416;-79
2022/02/12 17:01:58;;;;;;;3.20;0.82;;;22.60;26.20;23.10;94524.00;;;;10389651;28;47093;-79
2022/02/12 17:06:58;;;;;;;0.95;0.60;;;22.70;26.10;23.10;94527.00;;;;10391226;28;47867;-79
2022/02/12 17:11:59;;;;;;;2.92;0.60;;;22.70;26.20;23.20;94508.00;;;;10396824;28;47399;-79
2022/02/12 17:17:00;;;;;;;1.42;0.52;;;22.70;26.30;23.20;94514.00;;;;10391596;28;47032;-79
2022/02/12 17:22:01;;;;;;;2.17;0.80;;;22.80;26.40;23.30;94533.00;;;;10388514;28;45362;-79
2022/02/12 17:27:02;;;;;;;2.13;0.85;;;22.80;27.10;23.30;94531.00;;;;10391412;28;46997;-80
2022/02/12 17:32:03;;;;;;;3.38;0.70;;;22.90;27.20;23.40;94529.00;;;;10388694;28;48147;-80
2022/02/12 17:37:04;;;;;;;2.55;0.70;;;22.90;27.60;23.30;94526.00;;;;10391851;28;47019;-81
2022/02/12 17:42:05;;;;;;;2.85;0.70;;;23.00;27.80;23.40;94530.00;;;;10388502;28;48228;-81
2022/02/12 17:47:06;;;;;;;1.50;0.70;;;23.00;28.10;23.30;94543.00;;;;10386384;28;47243;-78
2022/02/12 17:52:07;;;;;;;1.48;0.80;;;23.00;27.40;23.30;94527.00;;;;10383713;28;48533;-78
2022/02/12 17:57:09;;;;;;;1.95;0.90;;;23.00;27.20;23.20;94524.00;;;;10383093;28;47497;-78
2022/02/12 18:02:10;;;;;;;2.72;1.00;;;22.90;26.20;23.10;94526.00;;;;10383154;28;47882;-78
2022/02/12 18:07:11;;;;;;;1.05;0.80;;;22.90;26.00;23.10;94526.00;;;;10382686;28;47601;-78
2022/02/12 18:12:14;;;;;;;3.35;1.02;;;22.80;25.70;23.10;94520.00;;;;10383195;28;47159;-78
2022/02/12 18:17:15;;;;;;;2.67;1.10;;;22.80;25.40;23.10;94534.00;;;;10382945;28;47894;-78
2022/02/12 18:22:16;;;;;;;2.55;1.02;;;22.70;24.80;23.10;94537.00;;;;10385222;28;47146;-77
2022/02/12 18:27:17;;;;;;;3.13;1.17;;;22.70;25.00;23.10;94540.00;;;;10370115;28;48167;-76
2022/02/12 18:32:18;;;;;;;4.28;1.10;;;22.80;24.90;23.10;94541.00;;;;10391910;28;47480;-77
2022/02/12 18:37:18;;;;;;;4.15;1.13;;;22.80;24.80;23.20;94519.00;;;;10397996;28;47736;-78
2022/02/12 18:42:19;;;;;;;1.85;1.10;;;22.80;24.80;23.20;94522.00;;;;10397200;28;47116;-77
2022/02/12 18:47:20;;;;;;;1.75;0.88;;;22.80;25.00;23.20;94526.00;;;;10398574;28;46825;-78
2022/02/12 18:52:21;;;;;;;1.98;1.10;;;22.80;25.20;23.20;94511.00;;;;10398552;28;47969;-78
2022/02/12 18:57:21;;;;;;;6.70;1.40;;;22.90;25.30;23.30;94516.00;;;;10393726;28;47286;-79
2022/02/12 19:02:22;;;;;;;2.97;1.08;;;22.90;26.00;23.20;94521.00;;;;10379793;28;46983;-79
2022/02/12 19:07:23;;;;;;;6.00;1.08;;;22.90;25.90;23.30;94515.00;;;;10377329;28;46757;-79
2022/02/12 19:12:25;;;;;;;1.52;0.82;;;23.00;25.80;23.30;94503.00;;;;10370735;28;47641;-79
2022/02/12 19:17:26;;;;;;;1.58;1.08;;;23.00;26.10;23.40;94517.00;;;;10412169;28;48365;-79
2022/02/12 19:22:27;;;;;;;1.90;1.02;;;23.00;26.10;23.40;94518.00;;;;10405349;28;47352;-78
2022/02/12 19:27:28;;;;;;;1.65;1.00;;;23.00;26.00;23.50;94511.00;;;;10356382;28;47182;-79
2022/02/12 19:32:29;;;;;;;1.77;0.85;;;23.10;26.10;23.50;94494.00;;;;10372293;28;47190;-79
2022/02/12 19:37:31;;;;;;;1.65;0.98;;;23.10;26.00;23.50;94494.00;;;;10372619;28;46206;-79
2022/02/12 19:42:32;;;;;;;2.72;1.08;;;23.20;26.10;23.60;94497.00;;;;10372019;28;46937;-79
2022/02/12 19:47:33;;;;;;;1.73;0.85;;;23.20;26.20;23.60;94487.00;;;;10372648;28;47098;-78
2022/02/12 19:52:35;;;;;;;2.30;1.00;;;23.20;26.10;23.60;94495.00;;;;10355098;28;46999;-78
2022/02/12 19:57:37;;;;;;;1.30;0.85;;;23.20;26.30;23.60;94494.00;;;;10371971;28;46946;-79
2022/02/12 20:02:39;;;;;;;1.52;0.80;;;23.20;26.30;23.60;94482.00;;;;10371951;28;47329;-79
2022/02/12 20:07:40;;;;;;;1.65;0.93;;;23.20;26.40;23.60;94485.00;;;;10371505;28;47367;-79
2022/02/12 20:12:41;;;;;;;1.80;1.00;;;23.20;26.70;23.60;94483.00;;;;10402086;22;47150;-80
2022/02/12 20:17:41;;;;;;;1.50;0.73;;;23.20;26.80;23.60;94490.00;;;;10477698;28;47146;-80
2022/02/12 20:22:42;;;;;;;1.33;0.70;;;23.20;27.20;23.60;94493.00;;;;10464238;28;47203;-80
2022/02/12 20:27:45;;;;;;;1.83;1.00;;;23.20;27.00;23.60;94472.00;;;;10443859;28;47753;-80
2022/02/12 20:32:48;;;;;;;2.90;0.95;;;23.20;27.00;23.60;94469.00;;;;10427120;28;46878;-80
2022/02/12 20:37:48;;;;;;;1.23;0.85;;;23.30;26.90;23.50;94473.00;;;;10443663;28;48228;-81
2022/02/12 20:42:51;;;;;;;1.13;0.73;;;23.20;26.50;23.60;94473.00;;;;10427231;28;47384;-80
2022/02/12 20:47:52;;;;;;;1.00;0.70;;;23.20;27.00;23.60;94459.00;;;;10425310;28;47915;-81
2022/02/12 20:52:53;;;;;;;1.40;0.90;;;23.20;26.90;23.60;94468.00;;;;10441493;28;46928;-80
2022/02/12 20:57:54;;;;;;;1.50;0.90;;;23.20;26.90;23.60;94480.00;;;;10443218;28;45476;-80
2022/02/12 21:02:55;;;;;;;2.08;0.80;;;23.20;27.60;23.50;94451.00;;;;10427778;28;46925;-81
2022/02/12 21:07:55;;;;;;;1.25;0.90;;;23.20;27.30;23.50;94458.00;;;;10445086;28;45468;-81
2022/02/12 21:12:56;;;;;;;1.00;0.80;;;23.20;27.20;23.50;94454.00;;;;10430050;28;45541;-81
2022/02/12 21:17:57;;;;;;;2.42;0.88;;;23.20;27.20;23.50;94454.00;;;;10405032;28;47028;-80
2022/02/12 21:22:57;;;;;;;1.23;0.82;;;23.20;27.40;23.50;94435.00;;;;10401963;28;47805;-81
2022/02/12 21:28:02;;;;;;;2.50;0.88;;;23.20;27.20;23.50;94460.00;;;;10422613;28;47367;-81
2022/02/12 21:33:03;;;;;;;1.77;0.80;;;23.20;27.30;23.50;94451.00;;;;10405397;28;47028;-80
2022/02/12 21:38:05;;;;;;;1.75;1.02;;;23.20;27.10;23.50;94442.00;;;;10421400;28;46347;-81
2022/02/12 21:43:06;;;;;;;1.35;0.73;;;23.10;27.20;23.50;94444.00;;;;10421430;28;46665;-81
2022/02/12 21:48:07;;;;;;;1.50;0.75;;;23.20;27.30;23.50;94450.00;;;;10403323;28;48435;-81
2022/02/12 21:53:08;;;;;;;2.80;0.88;;;23.10;27.20;23.50;94439.00;;;;10420017;28;47001;-81
2022/02/12 21:58:09;;;;;;;2.47;1.00;;;23.10;27.40;23.50;94448.00;;;;10404794;28;47426;-81
2022/02/12 22:03:11;;;;;;;1.08;0.70;;;23.10;27.10;23.50;94448.00;;;;10403279;28;47244;-81
2022/02/12 22:08:12;;;;;;;1.48;0.90;;;23.10;27.00;23.40;94456.00;;;;10418379;28;46486;-81
2022/02/12 22:13:13;;;;;;;1.20;0.75;;;23.10;27.20;23.40;94434.00;;;;10403972;28;47126;-80
2022/02/12 22:18:14;;;;;;;2.25;0.70;;;23.10;26.90;23.40;94465.00;;;;10403664;28;47024;-81